Time;durP1;ratioP1;P1;durP2;ratioP2;P2;SDS_P1;SDS_P2;PMS_P1;PMS_P2;Temp;Humidity;BMP_temperature;BMP_pressure;BME280_temperature;BME280_humidity;BME280_pressure;Samples;Min_cycle;Max_cycle;Signal;HPM_P1;HPM_P2
2023/04/23 00:01:25;;;;;;;229.93;21.77;;;;;;;;;;5035045;28;20041;-68
2023/04/23 00:03:54;;;;;;;121.70;21.13;;;;;;;;;;5034231;28;20094;-68
2023/04/23 00:06:21;;;;;;;139.75;21.42;;;;;;;;;;5054017;28;20695;-68
2023/04/23 00:08:47;;;;;;;78.43;23.05;;;;;;;;;;5054378;28;20044;-68
2023/04/23 00:11:13;;;;;;;44.88;23.23;;;;;;;;;;5033863;28;20044;-68
2023/04/23 00:13:40;;;;;;;52.42;26.17;;;;;;;;;;5035639;28;20051;-68
2023/04/23 00:16:06;;;;;;;51.25;27.90;;;;;;;;;;5038976;28;20056;-68
2023/04/23 00:18:32;;;;;;;61.55;29.75;;;;;;;;;;5034286;28;20049;-68
2023/04/23 00:20:58;;;;;;;58.70;30.88;;;;;;;;;;5033974;28;20064;-68
2023/04/23 00:23:25;;;;;;;64.43;33.50;;;;;;;;;;5033960;28;20217;-68
2023/04/23 00:25:52;;;;;;;78.65;33.88;;;;;;;;;;5033077;28;20493;-68
2023/04/23 00:28:18;;;;;;;73.88;34.58;;;;;;;;;;5037064;28;20041;-68
2023/04/23 00:30:44;;;;;;;72.38;32.45;;;;;;;;;;5031601;28;20093;-68
2023/04/23 00:33:11;;;;;;;71.57;32.55;;;;;;;;;;5035611;28;20175;-68
2023/04/23 00:35:37;;;;;;;108.28;36.47;;;;;;;;;;5034083;28;20063;-68
2023/04/23 00:38:03;;;;;;;254.50;43.13;;;;;;;;;;5033499;28;20045;-68
2023/04/23 00:40:29;;;;;;;342.30;45.38;;;;;;;;;;5032882;28;20048;-67
2023/04/23 00:42:56;;;;;;;395.00;46.90;;;;;;;;;;5030912;28;20068;-68
2023/04/23 00:45:23;;;;;;;304.00;46.58;;;;;;;;;;5032889;28;20070;-67
2023/04/23 00:47:49;;;;;;;352.15;47.30;;;;;;;;;;5031710;28;20071;-68
2023/04/23 00:50:15;;;;;;;350.45;48.42;;;;;;;;;;5033639;28;20137;-68
2023/04/23 00:52:41;;;;;;;395.92;49.03;;;;;;;;;;5032203;28;20049;-68
2023/04/23 00:55:08;;;;;;;364.75;46.83;;;;;;;;;;5031382;28;20346;-68
2023/04/23 00:57:35;;;;;;;315.73;46.88;;;;;;;;;;5031006;28;20077;-68
2023/04/23 01:00:02;;;;;;;388.17;49.70;;;;;;;;;;5028139;28;20032;-67
2023/04/23 01:02:30;;;;;;;320.83;46.20;;;;;;;;;;5029534;28;20083;-67
2023/04/23 01:04:57;;;;;;;310.52;47.28;;;;;;;;;;5032487;28;20049;-68
2023/04/23 01:07:23;;;;;;;305.88;45.22;;;;;;;;;;5032036;28;20072;-67
2023/04/23 01:09:50;;;;;;;283.60;43.80;;;;;;;;;;5031876;28;20052;-68
2023/04/23 01:12:16;;;;;;;267.70;44.83;;;;;;;;;;5034602;28;20037;-68
2023/04/23 01:14:43;;;;;;;212.23;44.20;;;;;;;;;;5035132;28;20171;-68
2023/04/23 01:17:11;;;;;;;195.70;43.47;;;;;;;;;;5034083;28;20040;-67
2023/04/23 01:19:37;;;;;;;186.40;43.90;;;;;;;;;;5034837;28;20045;-67
2023/04/23 01:22:03;;;;;;;162.73;43.08;;;;;;;;;;5028449;28;20056;-68
2023/04/23 01:24:30;;;;;;;141.73;42.97;;;;;;;;;;5052711;28;20055;-68
2023/04/23 01:26:57;;;;;;;140.60;41.55;;;;;;;;;;5055147;28;20072;-68
2023/04/23 01:29:24;;;;;;;101.60;40.42;;;;;;;;;;5050756;28;20057;-68
2023/04/23 01:31:50;;;;;;;106.10;38.55;;;;;;;;;;5031296;28;20041;-68
2023/04/23 01:34:17;;;;;;;164.02;39.33;;;;;;;;;;5030378;28;20504;-68
2023/04/23 01:36:43;;;;;;;185.70;40.53;;;;;;;;;;5033751;28;20044;-68
2023/04/23 01:39:09;;;;;;;229.02;38.53;;;;;;;;;;5049941;28;20036;-68
2023/04/23 01:41:35;;;;;;;228.25;39.58;;;;;;;;;;5040863;28;20048;-68
2023/04/23 01:44:01;;;;;;;163.25;36.05;;;;;;;;;;5033207;28;20048;-68
2023/04/23 01:46:28;;;;;;;95.60;34.20;;;;;;;;;;5053443;28;20467;-68
2023/04/23 01:48:54;;;;;;;103.80;35.88;;;;;;;;;;5056604;28;20123;-68
2023/04/23 01:51:22;;;;;;;99.45;39.25;;;;;;;;;;5058372;28;20056;-68
2023/04/23 01:53:48;;;;;;;91.82;38.35;;;;;;;;;;5057669;28;20534;-67
2023/04/23 01:56:15;;;;;;;90.10;36.33;;;;;;;;;;5033645;28;20063;-68
2023/04/23 01:58:41;;;;;;;100.60;37.50;;;;;;;;;;5057944;28;20067;-68
2023/04/23 02:01:07;;;;;;;85.93;36.70;;;;;;;;;;5058934;28;20475;-68
2023/04/23 02:03:33;;;;;;;81.18;36.58;;;;;;;;;;5038085;28;20449;-68
2023/04/23 02:06:00;;;;;;;83.15;37.97;;;;;;;;;;5051033;28;20236;-67
2023/04/23 02:08:26;;;;;;;94.03;40.83;;;;;;;;;;5054626;28;20110;-67
2023/04/23 02:10:52;;;;;;;90.38;39.75;;;;;;;;;;5055804;28;20722;-67
2023/04/23 02:13:19;;;;;;;99.32;40.90;;;;;;;;;;5055151;28;20137;-68
2023/04/23 02:15:45;;;;;;;112.07;45.92;;;;;;;;;;5057013;28;20037;-67
2023/04/23 02:18:11;;;;;;;114.18;46.65;;;;;;;;;;5052780;28;20066;-67
2023/04/23 02:20:39;;;;;;;111.90;47.53;;;;;;;;;;5051776;28;20669;-67
2023/04/23 02:23:06;;;;;;;134.73;49.80;;;;;;;;;;5055154;28;20044;-68
2023/04/23 02:25:32;;;;;;;263.50;63.55;;;;;;;;;;5049710;28;20158;-68
2023/04/23 02:28:00;;;;;;;438.25;74.43;;;;;;;;;;5052738;28;20419;-67
2023/04/23 02:30:26;;;;;;;558.35;84.07;;;;;;;;;;5056124;28;20064;-67
2023/04/23 02:32:52;;;;;;;659.63;89.82;;;;;;;;;;5049319;28;20051;-68
2023/04/23 02:35:20;;;;;;;737.60;93.50;;;;;;;;;;5055613;28;20048;-68
2023/04/23 02:37:46;;;;;;;816.92;100.03;;;;;;;;;;5020762;28;20044;-68
2023/04/23 02:40:12;;;;;;;854.85;105.75;;;;;;;;;;5037405;28;20048;-67
2023/04/23 02:42:38;;;;;;;820.40;103.45;;;;;;;;;;5054196;28;20045;-67
2023/04/23 02:45:04;;;;;;;773.15;97.43;;;;;;;;;;5054018;28;20087;-68
2023/04/23 02:47:30;;;;;;;725.17;99.35;;;;;;;;;;5053746;28;20037;-68
2023/04/23 02:49:57;;;;;;;847.15;105.68;;;;;;;;;;5057737;28;20052;-68
2023/04/23 02:52:24;;;;;;;890.33;105.93;;;;;;;;;;5053741;28;20037;-68
2023/04/23 02:54:50;;;;;;;902.97;106.55;;;;;;;;;;5052403;28;20469;-68
2023/04/23 02:57:16;;;;;;;769.08;105.60;;;;;;;;;;5053450;28;21162;-67
2023/04/23 02:59:43;;;;;;;758.08;101.35;;;;;;;;;;5055464;28;20101;-67
2023/04/23 03:02:09;;;;;;;806.10;108.90;;;;;;;;;;5055196;28;20043;-68
2023/04/23 03:04:35;;;;;;;803.88;108.75;;;;;;;;;;5054699;28;20629;-67
2023/04/23 03:07:02;;;;;;;746.67;109.13;;;;;;;;;;5053656;28;20080;-68
2023/04/23 03:09:28;;;;;;;782.42;107.32;;;;;;;;;;5054965;28;20045;-67
2023/04/23 03:11:56;;;;;;;815.38;114.18;;;;;;;;;;5055372;28;20649;-68
2023/04/23 03:14:22;;;;;;;783.28;115.25;;;;;;;;;;5057477;28;20068;-68
2023/04/23 03:16:48;;;;;;;830.28;117.03;;;;;;;;;;5056123;28;20053;-67
2023/04/23 03:19:15;;;;;;;598.33;107.43;;;;;;;;;;5037666;28;20108;-67
2023/04/23 03:21:41;;;;;;;601.70;110.32;;;;;;;;;;5055701;28;20088;-67
2023/04/23 03:24:07;;;;;;;590.83;110.90;;;;;;;;;;5036489;28;20071;-67
2023/04/23 03:26:33;;;;;;;640.55;115.38;;;;;;;;;;5037597;28;20419;-68
2023/04/23 03:29:00;;;;;;;550.38;110.90;;;;;;;;;;5054176;28;20043;-68
2023/04/23 03:31:26;;;;;;;591.30;111.72;;;;;;;;;;5057630;28;20092;-68
2023/04/23 03:33:52;;;;;;;550.13;109.30;;;;;;;;;;5052594;28;20501;-68
2023/04/23 03:36:18;;;;;;;594.80;111.18;;;;;;;;;;5033907;28;20115;-68
2023/04/23 03:38:44;;;;;;;578.03;115.35;;;;;;;;;;5053722;28;20123;-67
2023/04/23 03:41:10;;;;;;;596.30;114.63;;;;;;;;;;5035557;28;21206;-67
2023/04/23 03:43:36;;;;;;;598.03;114.60;;;;;;;;;;5053863;28;20049;-68
2023/04/23 03:46:02;;;;;;;476.45;110.03;;;;;;;;;;5036409;28;21479;-68
2023/04/23 03:48:29;;;;;;;478.88;111.15;;;;;;;;;;5055198;28;20043;-68
2023/04/23 03:50:55;;;;;;;416.38;106.63;;;;;;;;;;5035394;28;20095;-68
2023/04/23 03:53:21;;;;;;;437.83;107.50;;;;;;;;;;5052382;28;20486;-67
2023/04/23 03:55:47;;;;;;;388.23;103.63;;;;;;;;;;5054496;28;20059;-67
2023/04/23 03:58:13;;;;;;;406.90;103.85;;;;;;;;;;5042573;28;20385;-68
2023/04/23 04:00:40;;;;;;;384.73;103.45;;;;;;;;;;5052851;28;20658;-68
2023/04/23 04:03:07;;;;;;;389.08;102.43;;;;;;;;;;5051264;28;20048;-67
2023/04/23 04:05:34;;;;;;;363.77;101.28;;;;;;;;;;5036267;28;20048;-68
2023/04/23 04:08:00;;;;;;;356.90;102.00;;;;;;;;;;5036238;28;20052;-68
2023/04/23 04:10:27;;;;;;;362.55;103.03;;;;;;;;;;5036616;28;20056;-67
2023/04/23 04:12:54;;;;;;;369.00;103.80;;;;;;;;;;5058662;28;20054;-68
2023/04/23 04:15:20;;;;;;;349.30;99.43;;;;;;;;;;5057289;28;20391;-68
2023/04/23 04:17:46;;;;;;;318.38;97.75;;;;;;;;;;5042102;28;20048;-67
2023/04/23 04:20:13;;;;;;;339.23;101.70;;;;;;;;;;5038080;28;20049;-67
2023/04/23 04:22:39;;;;;;;314.13;97.15;;;;;;;;;;5031282;28;20097;-68
2023/04/23 04:25:06;;;;;;;320.48;96.47;;;;;;;;;;5031967;28;20046;-68
2023/04/23 04:27:33;;;;;;;306.27;95.50;;;;;;;;;;5033069;28;20047;-68
2023/04/23 04:30:00;;;;;;;285.33;90.50;;;;;;;;;;5032388;28;20506;-68
2023/04/23 04:32:26;;;;;;;283.70;88.22;;;;;;;;;;5030782;28;20175;-68
2023/04/23 04:34:53;;;;;;;255.63;85.00;;;;;;;;;;5035443;28;20126;-68
2023/04/23 04:37:20;;;;;;;257.65;83.90;;;;;;;;;;5033026;28;20053;-68
2023/04/23 04:39:46;;;;;;;248.27;83.57;;;;;;;;;;5033367;28;20053;-68
2023/04/23 04:42:13;;;;;;;270.23;88.38;;;;;;;;;;5035366;28;20052;-68
2023/04/23 04:44:39;;;;;;;265.35;87.80;;;;;;;;;;5033938;28;20049;-68
2023/04/23 04:47:07;;;;;;;277.63;86.03;;;;;;;;;;5033047;28;20051;-68
2023/04/23 04:49:33;;;;;;;285.58;90.35;;;;;;;;;;5032065;28;20053;-68
2023/04/23 04:52:00;;;;;;;280.05;91.80;;;;;;;;;;5032009;28;20061;-68
2023/04/23 04:54:26;;;;;;;306.00;93.43;;;;;;;;;;5033260;28;20048;-68
2023/04/23 04:56:52;;;;;;;311.20;94.88;;;;;;;;;;5032245;28;20075;-68
2023/04/23 04:59:18;;;;;;;306.42;95.65;;;;;;;;;;5034535;28;20388;-67
2023/04/23 05:01:44;;;;;;;320.80;94.00;;;;;;;;;;5034853;28;20059;-68
2023/04/23 05:04:10;;;;;;;307.60;92.95;;;;;;;;;;5033304;28;20666;-68
2023/04/23 05:06:36;;;;;;;301.02;91.75;;;;;;;;;;5033355;28;20040;-68
2023/04/23 05:09:03;;;;;;;309.58;93.00;;;;;;;;;;5032213;28;20508;-68
2023/04/23 05:11:29;;;;;;;286.55;90.40;;;;;;;;;;5033972;28;20510;-68
2023/04/23 05:13:56;;;;;;;287.95;93.43;;;;;;;;;;5030927;28;20061;-68
2023/04/23 05:16:23;;;;;;;312.65;94.03;;;;;;;;;;5036965;28;20036;-68
2023/04/23 05:18:49;;;;;;;312.70;94.50;;;;;;;;;;5034280;28;20041;-68
2023/04/23 05:21:15;;;;;;;304.80;93.97;;;;;;;;;;5031554;28;20059;-68
2023/04/23 05:23:41;;;;;;;297.58;91.10;;;;;;;;;;5035357;28;20088;-68
2023/04/23 05:26:07;;;;;;;288.48;90.88;;;;;;;;;;5035948;28;20041;-68
2023/04/23 05:28:33;;;;;;;255.15;84.95;;;;;;;;;;5031024;28;20094;-68
2023/04/23 05:30:59;;;;;;;268.02;90.50;;;;;;;;;;5031197;28;20046;-67
2023/04/23 05:33:26;;;;;;;283.58;93.32;;;;;;;;;;5016854;28;20076;-67
2023/04/23 05:35:52;;;;;;;201.43;81.03;;;;;;;;;;5033629;28;20484;-67
2023/04/23 05:38:18;;;;;;;210.90;79.15;;;;;;;;;;5034132;28;20056;-68
2023/04/23 05:40:44;;;;;;;218.20;81.13;;;;;;;;;;5033336;28;20069;-68
2023/04/23 05:43:10;;;;;;;197.68;77.75;;;;;;;;;;5032430;28;20039;-68
2023/04/23 05:45:36;;;;;;;212.20;81.03;;;;;;;;;;5038044;28;20053;-68
2023/04/23 05:48:03;;;;;;;202.27;78.90;;;;;;;;;;5039927;28;20036;-66
2023/04/23 05:50:29;;;;;;;198.65;80.85;;;;;;;;;;5037271;28;20029;-67
2023/04/23 05:52:55;;;;;;;187.93;75.53;;;;;;;;;;5042797;28;20416;-67
2023/04/23 05:55:22;;;;;;;192.93;77.93;;;;;;;;;;5042662;28;20041;-68
2023/04/23 05:57:49;;;;;;;192.95;76.18;;;;;;;;;;5038850;28;20060;-68
2023/04/23 06:00:15;;;;;;;144.40;71.03;;;;;;;;;;5035115;28;20393;-67
2023/04/23 06:02:42;;;;;;;140.77;65.70;;;;;;;;;;5038582;28;20029;-67
2023/04/23 06:05:08;;;;;;;121.30;60.92;;;;;;;;;;5032348;28;20084;-67
2023/04/23 06:07:35;;;;;;;110.93;57.85;;;;;;;;;;5031379;28;20047;-68
2023/04/23 06:10:01;;;;;;;114.38;55.17;;;;;;;;;;5037074;28;20397;-68
2023/04/23 06:12:28;;;;;;;102.93;54.75;;;;;;;;;;5036173;28;20044;-67
2023/04/23 06:14:54;;;;;;;105.13;55.45;;;;;;;;;;5036628;28;20057;-67
2023/04/23 06:17:20;;;;;;;113.38;57.10;;;;;;;;;;5033004;28;20037;-67
2023/04/23 06:19:46;;;;;;;99.28;53.78;;;;;;;;;;5041524;28;20612;-67
2023/04/23 06:22:12;;;;;;;111.75;54.95;;;;;;;;;;5041281;28;20098;-68
2023/04/23 06:24:38;;;;;;;103.63;55.30;;;;;;;;;;5036291;28;20080;-68
2023/04/23 06:27:04;;;;;;;100.03;54.35;;;;;;;;;;5060024;28;20040;-68
2023/04/23 06:29:31;;;;;;;97.40;53.22;;;;;;;;;;5059554;28;20045;-68
2023/04/23 06:31:57;;;;;;;96.97;54.70;;;;;;;;;;5051615;28;20559;-68
2023/04/23 06:34:23;;;;;;;90.80;52.10;;;;;;;;;;5042141;28;20037;-68
2023/04/23 06:36:50;;;;;;;98.45;56.30;;;;;;;;;;5054548;28;20059;-68
2023/04/23 06:39:17;;;;;;;98.47;54.25;;;;;;;;;;5062386;28;20499;-68
2023/04/23 06:41:43;;;;;;;106.10;57.03;;;;;;;;;;5065574;28;20040;-68
2023/04/23 06:44:10;;;;;;;91.75;52.95;;;;;;;;;;5061718;28;20471;-67
2023/04/23 06:46:36;;;;;;;97.20;54.60;;;;;;;;;;5061770;28;20044;-67
2023/04/23 06:49:02;;;;;;;104.38;56.40;;;;;;;;;;5067269;28;20049;-67
2023/04/23 06:51:28;;;;;;;97.30;54.38;;;;;;;;;;5067692;28;20045;-69
2023/04/23 06:53:54;;;;;;;107.95;55.97;;;;;;;;;;5045773;28;20491;-67
2023/04/23 06:56:20;;;;;;;98.20;54.45;;;;;;;;;;5067417;28;20391;-67
2023/04/23 06:58:47;;;;;;;93.85;55.45;;;;;;;;;;5062580;28;20045;-67
2023/04/23 07:01:13;;;;;;;90.65;53.22;;;;;;;;;;5038015;28;20077;-67
2023/04/23 07:03:43;;;;;;;96.70;52.97;;;;;;;;;;5058734;28;20049;-67
2023/04/23 07:06:09;;;;;;;94.55;52.40;;;;;;;;;;5059360;28;20072;-67
2023/04/23 07:08:35;;;;;;;109.45;59.67;;;;;;;;;;5059421;28;20039;-67
2023/04/23 07:11:02;;;;;;;105.95;58.60;;;;;;;;;;5045701;28;20079;-67
2023/04/23 07:13:28;;;;;;;94.53;56.80;;;;;;;;;;5054424;28;20148;-67
2023/04/23 07:15:54;;;;;;;89.75;53.05;;;;;;;;;;5058676;28;20127;-67
2023/04/23 07:18:20;;;;;;;84.60;52.10;;;;;;;;;;5065369;28;20101;-67
2023/04/23 07:20:46;;;;;;;95.97;54.63;;;;;;;;;;5041671;28;20098;-67
2023/04/23 07:23:12;;;;;;;89.95;51.35;;;;;;;;;;5046501;28;20052;-66
2023/04/23 07:25:38;;;;;;;81.82;50.63;;;;;;;;;;5056353;28;20041;-66
2023/04/23 07:28:05;;;;;;;87.60;52.60;;;;;;;;;;5060700;28;20101;-66
2023/04/23 07:30:31;;;;;;;87.22;50.95;;;;;;;;;;5059303;28;20048;-66
2023/04/23 07:32:57;;;;;;;88.28;51.65;;;;;;;;;;5043582;28;20057;-66
2023/04/23 07:35:25;;;;;;;88.95;52.92;;;;;;;;;;5061244;28;20465;-66
2023/04/23 07:37:52;;;;;;;76.40;48.17;;;;;;;;;;5061345;28;20044;-65
2023/04/23 07:40:21;;;;;;;76.22;47.22;;;;;;;;;;5057512;28;20040;-65
2023/04/23 07:42:47;;;;;;;78.55;50.03;;;;;;;;;;5061128;28;20514;-64
2023/04/23 07:45:14;;;;;;;73.90;46.80;;;;;;;;;;5064084;28;20040;-65
2023/04/23 07:47:40;;;;;;;71.18;44.88;;;;;;;;;;5065468;28;20430;-65
2023/04/23 07:50:07;;;;;;;74.93;47.30;;;;;;;;;;5064409;28;20411;-65
2023/04/23 07:52:33;;;;;;;72.50;47.35;;;;;;;;;;5065380;28;20037;-65
2023/04/23 07:54:59;;;;;;;78.47;47.92;;;;;;;;;;5064944;28;20460;-65
2023/04/23 07:57:25;;;;;;;83.18;51.88;;;;;;;;;;5041269;28;20544;-65
2023/04/23 07:59:51;;;;;;;73.97;48.10;;;;;;;;;;5041676;28;20048;-65
2023/04/23 08:02:22;;;;;;;63.85;41.55;;;;;;;;;;5046938;28;20086;-65
2023/04/23 08:04:48;;;;;;;60.03;40.08;;;;;;;;;;5062432;28;20067;-65
2023/04/23 08:07:14;;;;;;;54.67;38.55;;;;;;;;;;5041866;28;20040;-65
2023/04/23 08:09:41;;;;;;;61.85;40.67;;;;;;;;;;5062340;28;20450;-65
2023/04/23 08:26:04;;;;;;;47.30;33.20;;;;;;;;;;5151441;27;20114;-61
2023/04/23 08:28:31;;;;;;;47.00;33.72;;;;;;;;;;5111160;28;20097;-61
2023/04/23 08:30:57;;;;;;;40.72;28.33;;;;;;;;;;5109483;28;20047;-61
2023/04/23 08:33:23;;;;;;;41.42;29.70;;;;;;;;;;5114955;27;20031;-61
2023/04/23 08:35:49;;;;;;;45.35;31.70;;;;;;;;;;5121291;27;20088;-61
2023/04/23 08:38:15;;;;;;;37.08;27.88;;;;;;;;;;5117528;27;20379;-61
2023/04/23 08:40:42;;;;;;;44.42;31.10;;;;;;;;;;5120835;27;20542;-61
2023/04/23 08:43:18;;;;;;;47.65;30.60;;;;;;;;;;5123978;27;20070;-61
2023/04/23 08:45:46;;;;;;;41.85;28.48;;;;;;;;;;5119853;27;20377;-61
2023/04/23 08:48:13;;;;;;;40.28;24.88;;;;;;;;;;5121029;27;20039;-61
2023/04/23 08:50:42;;;;;;;34.67;23.48;;;;;;;;;;5116747;27;20032;-61
2023/04/23 08:53:08;;;;;;;36.58;22.60;;;;;;;;;;5120748;27;20032;-61
2023/04/23 08:55:35;;;;;;;33.15;23.20;;;;;;;;;;5094403;28;20086;-61
2023/04/23 08:58:05;;;;;;;35.00;25.02;;;;;;;;;;5120693;27;20047;-61
2023/04/23 09:00:32;;;;;;;35.00;24.17;;;;;;;;;;5117953;27;20052;-61
2023/04/23 09:02:58;;;;;;;34.97;25.77;;;;;;;;;;5123688;27;20148;-64
2023/04/23 09:05:24;;;;;;;27.17;20.55;;;;;;;;;;5098797;28;20046;-62
2023/04/23 09:07:51;;;;;;;31.42;22.70;;;;;;;;;;5122936;27;20039;-62
2023/04/23 09:10:17;;;;;;;28.67;22.50;;;;;;;;;;5121539;27;20043;-63
2023/04/23 09:12:44;;;;;;;29.40;20.95;;;;;;;;;;5114575;27;20036;-64
2023/04/23 09:15:11;;;;;;;29.52;22.15;;;;;;;;;;5118100;28;20126;-64
2023/04/23 09:17:39;;;;;;;27.95;20.27;;;;;;;;;;5126909;28;20055;-64
2023/04/23 09:20:08;;;;;;;30.30;19.88;;;;;;;;;;5127678;28;20084;-64
2023/04/23 09:22:38;;;;;;;25.55;19.23;;;;;;;;;;5126908;28;20075;-64
2023/04/23 09:25:05;;;;;;;28.13;18.08;;;;;;;;;;5115570;27;20050;-63
2023/04/23 09:27:31;;;;;;;22.48;15.60;;;;;;;;;;5119850;27;20750;-64
2023/04/23 09:30:03;;;;;;;20.75;16.60;;;;;;;;;;5121446;27;20148;-63
2023/04/23 09:32:32;;;;;;;23.90;16.50;;;;;;;;;;5118871;27;20043;-63
2023/04/23 09:34:58;;;;;;;23.52;14.25;;;;;;;;;;5103184;27;20406;-63
2023/04/23 09:37:26;;;;;;;20.63;12.82;;;;;;;;;;5108207;27;20065;-63
2023/04/23 09:39:54;;;;;;;22.25;12.98;;;;;;;;;;5109129;27;20043;-63
2023/04/23 09:42:22;;;;;;;14.30;9.00;;;;;;;;;;5103634;27;20082;-64
2023/04/23 09:44:57;;;;;;;13.88;6.32;;;;;;;;;;5102264;27;20312;-63
2023/04/23 09:47:23;;;;;;;13.32;6.90;;;;;;;;;;5079224;28;20052;-63
2023/04/23 09:49:50;;;;;;;12.15;6.72;;;;;;;;;;5102126;27;20087;-63
2023/04/23 09:52:17;;;;;;;13.80;7.25;;;;;;;;;;5106802;27;20119;-63
2023/04/23 09:54:45;;;;;;;14.52;6.70;;;;;;;;;;5105799;28;20044;-64
2023/04/23 09:57:11;;;;;;;15.70;7.38;;;;;;;;;;5106632;27;20044;-64
2023/04/23 09:59:37;;;;;;;11.90;6.45;;;;;;;;;;5104527;28;20439;-64
2023/04/23 10:02:05;;;;;;;12.98;5.95;;;;;;;;;;5103644;27;20070;-63
2023/04/23 10:04:31;;;;;;;11.77;5.90;;;;;;;;;;5108897;28;20036;-63
2023/04/23 10:06:58;;;;;;;12.82;6.93;;;;;;;;;;5107279;28;20043;-64
2023/04/23 10:09:25;;;;;;;11.77;7.25;;;;;;;;;;5100162;28;20039;-63
2023/04/23 10:11:52;;;;;;;10.20;6.55;;;;;;;;;;5107141;27;20036;-63
2023/04/23 10:14:19;;;;;;;16.33;8.30;;;;;;;;;;5098083;28;20040;-63
2023/04/23 10:16:46;;;;;;;12.15;7.40;;;;;;;;;;5099696;27;20082;-63
2023/04/23 10:19:14;;;;;;;14.60;6.97;;;;;;;;;;5104405;27;20118;-63
2023/04/23 10:21:41;;;;;;;12.93;5.30;;;;;;;;;;5102070;28;20046;-63
2023/04/23 10:24:10;;;;;;;11.02;5.53;;;;;;;;;;5105764;28;20043;-64
2023/04/23 10:26:38;;;;;;;12.95;6.40;;;;;;;;;;5076462;27;20054;-64
2023/04/23 10:29:08;;;;;;;12.18;6.55;;;;;;;;;;5096910;27;20036;-63
2023/04/23 10:31:35;;;;;;;12.85;6.53;;;;;;;;;;5102707;27;20043;-69
2023/04/23 10:34:04;;;;;;;11.65;5.70;;;;;;;;;;5099614;27;20077;-66
2023/04/23 10:36:32;;;;;;;8.70;4.75;;;;;;;;;;5091021;27;20481;-63
2023/04/23 10:39:02;;;;;;;10.57;5.57;;;;;;;;;;5103866;27;20035;-66
2023/04/23 10:41:33;;;;;;;10.18;5.07;;;;;;;;;;5084750;28;20090;-66
2023/04/23 10:43:59;;;;;;;9.75;5.35;;;;;;;;;;5098370;27;20035;-66
2023/04/23 10:46:29;;;;;;;10.18;4.75;;;;;;;;;;5092245;28;20058;-66
2023/04/23 10:49:07;;;;;;;8.07;4.43;;;;;;;;;;5097850;28;20032;-66
2023/04/23 10:51:35;;;;;;;10.48;4.47;;;;;;;;;;5078001;28;21327;-66
2023/04/23 10:54:02;;;;;;;10.73;5.38;;;;;;;;;;5099913;27;20047;-66
2023/04/23 10:56:29;;;;;;;10.73;3.50;;;;;;;;;;5077298;28;20032;-66
2023/04/23 10:58:55;;;;;;;8.98;3.75;;;;;;;;;;5078644;27;20075;-66
2023/04/23 11:01:24;;;;;;;8.93;3.20;;;;;;;;;;5091695;28;20390;-66
2023/04/23 11:03:51;;;;;;;6.28;2.13;;;;;;;;;;5096445;28;20044;-66
2023/04/23 11:06:19;;;;;;;6.53;2.53;;;;;;;;;;5097402;28;20035;-66
2023/04/23 11:08:52;;;;;;;6.15;2.40;;;;;;;;;;5083026;28;20131;-67
2023/04/23 11:11:18;;;;;;;8.60;2.93;;;;;;;;;;5071293;28;20078;-66
2023/04/23 11:13:53;;;;;;;5.93;2.50;;;;;;;;;;5089587;27;20039;-66
2023/04/23 11:16:21;;;;;;;7.25;2.15;;;;;;;;;;5092019;27;20544;-66
2023/04/23 11:19:03;;;;;;;5.63;2.60;;;;;;;;;;5072154;28;20055;-66
2023/04/23 11:21:48;;;;;;;6.28;2.13;;;;;;;;;;5092397;28;20056;-66
2023/04/23 11:24:14;;;;;;;8.00;1.63;;;;;;;;;;5074231;28;20075;-66
2023/04/23 11:26:42;;;;;;;5.18;1.60;;;;;;;;;;5092066;28;20085;-66
2023/04/23 11:29:10;;;;;;;6.38;1.83;;;;;;;;;;5090656;28;20062;-66
2023/04/23 11:31:37;;;;;;;5.20;1.83;;;;;;;;;;5094279;27;20047;-66
2023/04/23 11:34:03;;;;;;;6.55;2.30;;;;;;;;;;5071094;27;20461;-66
2023/04/23 11:36:29;;;;;;;7.03;2.53;;;;;;;;;;5090314;27;20176;-67
2023/04/23 11:38:55;;;;;;;8.93;2.92;;;;;;;;;;5071427;28;20040;-67
2023/04/23 11:41:22;;;;;;;8.13;3.05;;;;;;;;;;5089717;28;20449;-67
2023/04/23 11:43:48;;;;;;;7.32;3.42;;;;;;;;;;5090987;28;20052;-66
2023/04/23 11:46:15;;;;;;;10.52;3.33;;;;;;;;;;5088252;27;20086;-67
2023/04/23 11:48:41;;;;;;;6.63;2.58;;;;;;;;;;5090913;28;20043;-67
2023/04/23 11:51:07;;;;;;;6.95;2.97;;;;;;;;;;5089165;27;20127;-67
2023/04/23 11:53:34;;;;;;;7.43;2.50;;;;;;;;;;5088406;28;20048;-67
2023/04/23 11:56:00;;;;;;;10.18;3.70;;;;;;;;;;5089645;27;20043;-67
2023/04/23 11:58:26;;;;;;;7.15;2.95;;;;;;;;;;5089271;28;20051;-67
2023/04/23 12:00:58;;;;;;;8.07;3.28;;;;;;;;;;5089118;28;20032;-67
2023/04/23 12:03:26;;;;;;;7.07;2.75;;;;;;;;;;5091053;27;20128;-67
2023/04/23 12:05:52;;;;;;;6.78;2.17;;;;;;;;;;5072208;28;20494;-67
2023/04/23 12:08:19;;;;;;;7.10;2.25;;;;;;;;;;5089695;28;20088;-66
2023/04/23 12:10:49;;;;;;;12.13;3.20;;;;;;;;;;5072544;28;20075;-66
2023/04/23 12:13:15;;;;;;;9.15;3.10;;;;;;;;;;5089313;28;20032;-66
2023/04/23 12:15:45;;;;;;;8.63;2.65;;;;;;;;;;5056499;28;20090;-67
2023/04/23 12:18:12;;;;;;;6.43;2.20;;;;;;;;;;5088862;28;20146;-66
2023/04/23 12:20:39;;;;;;;9.90;2.55;;;;;;;;;;5070100;28;20044;-66
2023/04/23 12:23:05;;;;;;;7.32;2.10;;;;;;;;;;5091410;28;20131;-67
2023/04/23 12:25:32;;;;;;;8.88;2.20;;;;;;;;;;5090111;28;20047;-66
2023/04/23 12:27:59;;;;;;;6.43;2.35;;;;;;;;;;5069851;28;20131;-67
2023/04/23 12:30:29;;;;;;;7.70;2.25;;;;;;;;;;5091572;28;20044;-66
2023/04/23 12:33:00;;;;;;;9.30;2.50;;;;;;;;;;5087238;28;20040;-66
2023/04/23 12:35:40;;;;;;;10.15;2.53;;;;;;;;;;5099578;28;20504;-67
2023/04/23 12:38:06;;;;;;;8.23;2.72;;;;;;;;;;5089093;28;20509;-66
2023/04/23 12:40:33;;;;;;;9.65;2.00;;;;;;;;;;5092383;28;20057;-66
2023/04/23 12:42:59;;;;;;;10.25;2.08;;;;;;;;;;5090799;28;20040;-67
2023/04/23 12:45:25;;;;;;;10.07;2.13;;;;;;;;;;5069982;28;20459;-67
2023/04/23 12:47:51;;;;;;;8.45;2.22;;;;;;;;;;5091939;28;20047;-67
2023/04/23 12:50:17;;;;;;;8.60;2.35;;;;;;;;;;5091229;28;20124;-66
2023/04/23 12:52:44;;;;;;;6.30;2.00;;;;;;;;;;5073631;28;20080;-67
2023/04/23 12:55:10;;;;;;;11.55;2.22;;;;;;;;;;5089585;28;20101;-68
2023/04/23 12:57:36;;;;;;;9.13;2.38;;;;;;;;;;5090097;28;20051;-68
2023/04/23 13:00:02;;;;;;;7.43;2.08;;;;;;;;;;5092970;28;20066;-68
2023/04/23 13:02:29;;;;;;;7.50;1.75;;;;;;;;;;5092261;28;20064;-68
2023/04/23 13:04:59;;;;;;;10.10;2.22;;;;;;;;;;5091082;28;20085;-69
2023/04/23 13:07:25;;;;;;;11.05;2.67;;;;;;;;;;5089405;28;20051;-68
2023/04/23 13:09:51;;;;;;;12.75;2.03;;;;;;;;;;5091592;28;20126;-68
2023/04/23 13:12:17;;;;;;;11.43;2.67;;;;;;;;;;5080439;28;20047;-68
2023/04/23 13:14:44;;;;;;;8.65;1.95;;;;;;;;;;5093438;27;20444;-68
2023/04/23 13:17:10;;;;;;;8.75;2.17;;;;;;;;;;5095612;27;20048;-68
2023/04/23 13:19:38;;;;;;;8.25;2.10;;;;;;;;;;5094672;27;20092;-68
2023/04/23 13:22:05;;;;;;;8.43;2.40;;;;;;;;;;5079418;28;20118;-68
2023/04/23 13:24:31;;;;;;;6.65;2.00;;;;;;;;;;5091214;27;20506;-68
2023/04/23 13:26:57;;;;;;;9.45;2.55;;;;;;;;;;5093468;27;20059;-68
2023/04/23 13:29:26;;;;;;;7.35;1.98;;;;;;;;;;5081876;28;20051;-68
2023/04/23 13:31:53;;;;;;;7.32;1.90;;;;;;;;;;5091076;27;20044;-68
2023/04/23 13:34:19;;;;;;;9.00;2.53;;;;;;;;;;5101010;27;20035;-69
2023/04/23 13:36:45;;;;;;;6.93;2.22;;;;;;;;;;5084508;28;20055;-68
2023/04/23 13:39:12;;;;;;;8.68;2.03;;;;;;;;;;5077758;28;20044;-67
2023/04/23 13:41:39;;;;;;;8.65;1.70;;;;;;;;;;5092442;28;20055;-67
2023/04/23 13:44:05;;;;;;;9.82;2.08;;;;;;;;;;5093995;28;20092;-67
2023/04/23 13:46:32;;;;;;;8.48;2.10;;;;;;;;;;5095207;27;20040;-67
2023/04/23 13:48:59;;;;;;;7.07;2.55;;;;;;;;;;5072485;28;20419;-67
2023/04/23 13:51:26;;;;;;;7.30;1.60;;;;;;;;;;5074264;28;20116;-67
2023/04/23 13:53:52;;;;;;;8.13;2.25;;;;;;;;;;5092890;27;20085;-67
2023/04/23 13:56:18;;;;;;;8.77;2.40;;;;;;;;;;5095366;27;20429;-67
2023/04/23 13:58:46;;;;;;;9.93;2.00;;;;;;;;;;5091280;27;21664;-67
2023/04/23 14:01:14;;;;;;;9.30;1.80;;;;;;;;;;5090793;27;20453;-67
2023/04/23 14:03:40;;;;;;;9.75;2.03;;;;;;;;;;5093863;28;20354;-67
2023/04/23 14:06:07;;;;;;;8.45;1.75;;;;;;;;;;5091193;28;20226;-67
2023/04/23 14:08:35;;;;;;;11.48;2.38;;;;;;;;;;5094264;28;20036;-67
2023/04/23 14:11:01;;;;;;;10.93;2.47;;;;;;;;;;5095339;28;20363;-67
2023/04/23 14:13:28;;;;;;;9.07;1.58;;;;;;;;;;5090387;28;20108;-67
2023/04/23 14:15:54;;;;;;;6.30;1.95;;;;;;;;;;5083819;27;20126;-67
2023/04/23 14:18:20;;;;;;;8.23;2.10;;;;;;;;;;5091996;27;20042;-67
2023/04/23 14:20:46;;;;;;;6.43;1.77;;;;;;;;;;5090339;27;20043;-67
2023/04/23 14:23:38;;;;;;;5.82;1.63;;;;;;;;;;5075008;28;20039;-67
2023/04/23 14:26:08;;;;;;;7.45;1.98;;;;;;;;;;5092416;27;20091;-67
2023/04/23 14:28:39;;;;;;;6.30;1.65;;;;;;;;;;5090596;28;20048;-67
2023/04/23 14:31:06;;;;;;;10.57;2.00;;;;;;;;;;5091878;27;20058;-67